Time;durP1;ratioP1;P1;durP2;ratioP2;P2;SDS_P1;SDS_P2;PMS_P1;PMS_P2;Temp;Humidity;BMP_temperature;BMP_pressure;BME280_temperature;BME280_humidity;BME280_pressure;Samples;Min_cycle;Max_cycle;Signal;HPM_P1;HPM_P2
2022/05/16 00:02:04;;;;;;;;;;;;;;;18.04;68.42;100448.69;4420462;32;20414;-68
2022/05/16 00:04:31;;;;;;;;;;;;;;;18.07;68.39;100444.09;4417366;32;20069;-68
2022/05/16 00:06:56;;;;;;;;;;;;;;;17.73;69.33;100437.13;4419087;32;19949;-68
2022/05/16 00:09:22;;;;;;;;;;;;;;;17.60;68.80;100439.50;4420214;32;19957;-68
2022/05/16 00:11:48;;;;;;;;;;;;;;;17.50;69.40;100436.03;4416608;32;20489;-68
2022/05/16 00:14:14;;;;;;;;;;;;;;;17.51;70.31;100445.31;4421236;32;20345;-68
2022/05/16 00:16:39;;;;;;;;;;;;;;;17.53;70.51;100440.72;4420655;32;20064;-68
2022/05/16 00:19:05;;;;;;;;;;;;;;;17.37;70.13;100441.19;4416334;32;20001;-68
2022/05/16 00:21:31;;;;;;;;;;;;;;;17.25;70.24;100436.59;4421751;32;20078;-68
2022/05/16 00:23:57;;;;;;;;;;;;;;;17.08;71.31;100443.25;4414227;32;20476;-68
2022/05/16 00:26:22;;;;;;;;;;;;;;;17.17;71.36;100435.44;4418871;32;19958;-67
2022/05/16 00:28:48;;;;;;;;;;;;;;;17.13;71.36;100440.53;4423298;32;20388;-68
2022/05/16 00:31:13;;;;;;;;;;;;;;;17.16;71.56;100445.25;4420063;32;20410;-68
2022/05/16 00:33:41;;;;;;;;;;;;;;;17.50;71.11;100443.75;4417712;32;19957;-68
2022/05/16 00:36:06;;;;;;;;;;;;;;;17.24;71.10;100437.88;4421622;32;19953;-68
2022/05/16 00:38:32;;;;;;;;;;;;;;;17.20;72.16;100434.44;4417572;32;19964;-68
2022/05/16 00:40:58;;;;;;;;;;;;;;;17.07;71.29;100431.13;4417998;32;19972;-68
2022/05/16 00:43:41;;;;;;;;;;;;;;;17.18;70.67;100436.22;4420251;32;20380;-68
2022/05/16 00:46:07;;;;;;;;;;;;;;;17.21;70.72;100447.37;4418658;32;19953;-68
2022/05/16 00:48:32;;;;;;;;;;;;;;;17.16;70.03;100444.47;4419225;32;20013;-68
2022/05/16 00:50:58;;;;;;;;;;;;;;;17.14;70.26;100444.94;4421308;32;20005;-67
2022/05/16 00:53:24;;;;;;;;;;;;;;;17.14;68.90;100436.41;4418580;32;19971;-67
2022/05/16 00:55:49;;;;;;;;;;;;;;;17.19;70.07;100438.59;4417658;32;19954;-67
2022/05/16 00:58:16;;;;;;;;;;;;;;;17.15;69.44;100435.12;4420624;32;19993;-67
2022/05/16 01:00:43;;;;;;;;;;;;;;;17.15;70.07;100440.06;4420576;32;20193;-67
2022/05/16 01:05:56;;;;;;;;;;;;;;;16.95;71.12;100423.69;4416737;32;19962;-68
2022/05/16 01:08:24;;;;;;;;;;;;;;;16.71;70.76;100422.97;4421325;32;19972;-68
2022/05/16 01:10:52;;;;;;;;;;;;;;;16.63;72.19;100418.94;4417844;32;19961;-69
2022/05/16 01:13:17;;;;;;;;;;;;;;;16.84;71.37;100417.03;4417619;32;19954;-66
2022/05/16 01:15:45;;;;;;;;;;;;;;;16.59;72.23;100417.56;4420007;32;20695;-66
2022/05/16 01:18:12;;;;;;;;;;;;;;;16.52;72.56;100401.69;4418954;32;20331;-66
2022/05/16 01:23:16;;;;;;;;;;;;;;;17.25;70.58;100401.69;3948907;32;15809513;-69
2022/05/16 01:25:42;;;;;;;;;;;;;;;17.25;70.58;100401.69;4436352;32;20019;-68
2022/05/16 01:28:07;;;;;;;;;;;;;;;16.79;71.96;100398.59;4435053;32;20063;-69
2022/05/16 01:30:35;;;;;;;;;;;;;;;16.52;72.96;100389.53;4435432;32;19961;-69
2022/05/16 01:33:01;;;;;;;;;;;;;;;16.35;73.17;100386.34;4432635;32;20040;-69
2022/05/16 01:35:27;;;;;;;;;;;;;;;16.33;74.36;100376.75;4429364;32;19968;-68
2022/05/16 01:38:26;;;;;;;;;;;;;;;16.25;75.14;100370.66;4433041;32;20024;-67
2022/05/16 01:40:39;;;;;;;;;;;;;;;16.56;73.85;100371.03;4433488;32;20002;-68
2022/05/16 01:43:05;;;;;;;;;;;;;;;16.42;72.78;100365.31;4436413;32;19995;-68
2022/05/16 01:45:30;;;;;;;;;;;;;;;16.42;73.62;100368.94;4431224;32;20405;-69
2022/05/16 01:47:56;;;;;;;;;;;;;;;16.29;74.18;100367.62;4434261;32;20032;-69
2022/05/16 01:50:22;;;;;;;;;;;;;;;16.42;74.16;100368.94;4434719;32;19965;-68
2022/05/16 01:52:47;;;;;;;;;;;;;;;16.41;74.26;100375.09;4430930;32;20020;-68
2022/05/16 01:55:13;;;;;;;;;;;;;;;16.41;74.05;100355.22;4433798;32;19993;-69
2022/05/16 01:57:39;;;;;;;;;;;;;;;16.30;74.85;100355.00;4434944;32;20382;-69
2022/05/16 02:00:06;;;;;;;;;;;;;;;16.01;76.56;100350.03;4432668;32;20300;-69
2022/05/16 02:02:32;;;;;;;;;;;;;;;16.21;76.14;100347.34;4432405;32;20590;-69
2022/05/16 02:04:57;;;;;;;;;;;;;;;16.45;74.98;100350.16;4431486;32;20012;-69
2022/05/16 02:07:23;;;;;;;;;;;;;;;16.54;74.70;100350.84;4434107;32;19959;-69
2022/05/16 02:09:51;;;;;;;;;;;;;;;16.60;74.25;100357.41;4431134;32;19953;-69
2022/05/16 02:12:16;;;;;;;;;;;;;;;16.45;74.43;100353.00;4434434;32;20473;-68
2022/05/16 02:14:42;;;;;;;;;;;;;;;16.26;76.24;100349.50;4430225;32;19953;-68
2022/05/16 02:17:07;;;;;;;;;;;;;;;16.26;76.92;100343.06;4420429;32;20019;-68
2022/05/16 02:19:32;;;;;;;;;;;;;;;16.11;77.15;100345.87;4435041;32;19977;-69
2022/05/16 02:24:43;;;;;;;;;;;;;;;37.07;57.07;100394.53;4429824;32;19988;-67
2022/05/16 02:27:10;;;;;;;;;;;;;;;40.05;23.77;100397.22;4434473;32;20335;-68
2022/05/16 02:29:35;;;;;;;;;;;;;;;40.52;22.26;100398.25;4434555;32;19984;-67
2022/05/16 02:32:02;;;;;;;;;;;;;;;40.30;22.06;100397.09;4432501;32;20007;-67
2022/05/16 02:34:27;;;;;;;;;;;;;;;39.97;22.17;100390.88;4423174;32;20365;-67
2022/05/16 02:36:52;;;;;;;;;;;;;;;39.85;21.58;100396.13;4422637;32;19964;-67
2022/05/16 02:39:18;;;;;;;;;;;;;;;40.22;21.66;100392.94;4424424;32;19997;-67
2022/05/16 02:41:44;;;;;;;;;;;;;;;39.52;21.04;100392.78;4424160;32;20252;-67
2022/05/16 02:44:10;;;;;;;;;;;;;;;40.11;21.65;100393.81;4422833;32;20008;-67
2022/05/16 02:46:37;;;;;;;;;;;;;;;40.29;21.45;100388.91;4421474;32;20001;-68
2022/05/16 02:49:03;;;;;;;;;;;;;;;40.08;21.22;100398.84;4423898;32;19965;-68
2022/05/16 02:51:28;;;;;;;;;;;;;;;40.07;21.44;100390.66;4423090;32;20121;-67
2022/05/16 02:53:54;;;;;;;;;;;;;;;40.02;21.19;100383.00;4422859;32;19957;-68
2022/05/16 02:56:20;;;;;;;;;;;;;;;39.67;21.48;100384.06;4419735;32;20412;-68
2022/05/16 02:58:46;;;;;;;;;;;;;;;39.89;21.52;100377.91;4422116;32;20007;-68
2022/05/16 03:01:11;;;;;;;;;;;;;;;40.04;21.39;100365.44;4422946;32;19957;-68
2022/05/16 03:03:41;;;;;;;;;;;;;;;40.03;21.54;100355.09;4422630;32;20001;-67
2022/05/16 03:06:09;;;;;;;;;;;;;;;39.77;21.35;100353.62;4421348;32;20620;-67
2022/05/16 03:08:37;;;;;;;;;;;;;;;39.66;21.84;100352.31;4424427;32;20019;-67
2022/05/16 03:11:04;;;;;;;;;;;;;;;39.69;21.49;100353.97;4422000;32;19973;-68
2022/05/16 03:13:33;;;;;;;;;;;;;;;39.34;21.39;100345.41;4421839;32;19961;-68
2022/05/16 03:15:59;;;;;;;;;;;;;;;39.90;21.20;100355.87;4422696;32;20057;-68
2022/05/16 03:18:29;;;;;;;;;;;;;;;39.61;20.87;100354.28;4422754;32;20145;-68
2022/05/16 03:20:55;;;;;;;;;;;;;;;39.31;21.23;100354.78;4422203;32;20008;-66
2022/05/16 03:23:21;;;;;;;;;;;;;;;39.33;21.18;100346.06;4420217;32;19993;-66
2022/05/16 03:25:46;;;;;;;;;;;;;;;38.94;21.50;100346.03;4421682;32;20024;-67
2022/05/16 03:28:12;;;;;;;;;;;;;;;39.33;21.45;100329.13;4421116;32;19953;-66
2022/05/16 03:30:38;;;;;;;;;;;;;;;39.23;21.61;100334.47;4419311;32;20016;-67
2022/05/16 03:33:04;;;;;;;;;;;;;;;39.15;21.60;100334.03;4421330;32;19969;-68
2022/05/16 03:35:29;;;;;;;;;;;;;;;39.16;21.71;100338.50;4422723;32;19945;-67
2022/05/16 03:37:55;;;;;;;;;;;;;;;39.59;21.26;100336.50;4420308;32;20271;-67
2022/05/16 03:40:51;;;;;;;;;;;;;;;39.52;21.30;100334.66;4421781;32;19953;-68
2022/05/16 03:43:06;;;;;;;;;;;;;;;39.56;21.08;100328.97;4421484;32;20424;-67
2022/05/16 03:45:31;;;;;;;;;;;;;;;39.30;21.37;100324.56;4419935;32;19958;-68
2022/05/16 03:47:57;;;;;;;;;;;;;;;39.31;20.94;100314.31;4419669;32;19972;-68
2022/05/16 03:50:23;;;;;;;;;;;;;;;39.50;21.27;100310.22;4419637;32;19972;-68
2022/05/16 03:52:49;;;;;;;;;;;;;;;39.83;20.94;100304.66;4422039;32;20011;-68
2022/05/16 03:55:16;;;;;;;;;;;;;;;39.37;20.91;100308.00;4421961;32;20767;-68
2022/05/16 03:57:42;;;;;;;;;;;;;;;39.49;20.89;100305.75;4420807;32;19961;-68
2022/05/16 04:00:16;;;;;;;;;;;;;;;39.76;20.37;100305.75;4422982;32;19957;-68
2022/05/16 04:02:42;;;;;;;;;;;;;;;39.55;20.55;100306.06;4420258;32;19989;-68
2022/05/16 04:05:08;;;;;;;;;;;;;;;39.87;20.14;100304.13;4419375;32;20050;-68
2022/05/16 04:07:35;;;;;;;;;;;;;;;40.05;20.44;100299.16;4421254;32;20001;-68
2022/05/16 04:10:02;;;;;;;;;;;;;;;39.83;20.45;100298.00;4421062;32;20331;-68
2022/05/16 04:12:28;;;;;;;;;;;;;;;39.67;20.49;100292.00;4419488;32;20003;-68
2022/05/16 04:14:54;;;;;;;;;;;;;;;40.10;20.15;100292.84;4419337;32;19965;-68
2022/05/16 04:17:19;;;;;;;;;;;;;;;40.12;19.55;100281.13;4424172;32;20350;-68
2022/05/16 04:19:45;;;;;;;;;;;;;;;40.10;19.95;100286.94;4420786;32;20021;-68
2022/05/16 04:22:12;;;;;;;;;;;;;;;40.10;20.08;100283.22;4418812;32;19994;-68
2022/05/16 04:24:37;;;;;;;;;;;;;;;40.27;20.01;100277.50;4419447;32;20375;-68
2022/05/16 04:27:03;;;;;;;;;;;;;;;39.94;20.35;100292.00;4422739;32;19958;-68
2022/05/16 04:29:29;;;;;;;;;;;;;;;40.27;20.09;100288.56;4418413;32;19995;-68
2022/05/16 04:31:54;;;;;;;;;;;;;;;40.06;19.67;100288.91;4422421;32;20032;-68
2022/05/16 04:34:20;;;;;;;;;;;;;;;40.17;19.89;100288.78;4407409;32;19957;-68
2022/05/16 04:36:45;;;;;;;;;;;;;;;40.30;19.80;100290.19;4417921;32;20004;-68
2022/05/16 04:39:11;;;;;;;;;;;;;;;39.88;19.87;100282.84;4423065;32;19949;-68
2022/05/16 04:44:22;;;;;;;;;;;;;;;40.38;19.75;100273.66;4420387;32;20005;-68
2022/05/16 04:46:48;;;;;;;;;;;;;;;40.62;19.48;100268.19;4422923;32;20460;-68
2022/05/16 04:49:14;;;;;;;;;;;;;;;40.06;19.87;100283.75;4419352;32;20397;-68
2022/05/16 04:51:39;;;;;;;;;;;;;;;40.51;19.55;100283.88;4420121;32;19993;-68
2022/05/16 04:54:05;;;;;;;;;;;;;;;40.81;19.15;100294.25;4418110;32;20052;-68
2022/05/16 04:56:31;;;;;;;;;;;;;;;40.94;19.03;100303.03;4420254;32;20020;-68
2022/05/16 04:58:56;;;;;;;;;;;;;;;40.89;18.73;100303.50;4409637;32;20350;-68
2022/05/16 05:01:22;;;;;;;;;;;;;;;39.78;19.36;100296.25;4421650;32;19957;-68
2022/05/16 05:03:47;;;;;;;;;;;;;;;40.60;18.89;100307.22;4419853;32;19957;-69
2022/05/16 05:06:13;;;;;;;;;;;;;;;40.77;19.14;100312.50;4420754;32;20328;-69
2022/05/16 05:08:39;;;;;;;;;;;;;;;40.65;19.19;100317.03;4417775;32;20013;-69
2022/05/16 05:16:37;;;;;;;;;;;;;;;40.77;19.29;100305.88;4420016;32;20341;-69
2022/05/16 05:19:03;;;;;;;;;;;;;;;40.87;19.29;100297.50;4422649;32;20295;-68
2022/05/16 05:21:29;;;;;;;;;;;;;;;40.59;19.42;100305.69;4420074;32;19957;-68
2022/05/16 05:23:56;;;;;;;;;;;;;;;40.91;19.34;100303.59;4419473;32;20007;-68
2022/05/16 05:26:21;;;;;;;;;;;;;;;40.98;18.96;100315.03;4419345;32;19993;-68
2022/05/16 05:28:47;;;;;;;;;;;;;;;40.77;19.20;100317.66;4421417;32;19991;-67
2022/05/16 05:31:13;;;;;;;;;;;;;;;40.50;19.71;100311.84;4424122;32;19981;-67
2022/05/16 05:33:39;;;;;;;;;;;;;;;40.84;19.21;100310.63;4420928;32;20009;-67
2022/05/16 05:36:05;;;;;;;;;;;;;;;40.99;18.97;100312.84;4407252;32;19957;-67
2022/05/16 05:38:30;;;;;;;;;;;;;;;41.19;19.12;100302.78;4419636;32;19949;-67
2022/05/16 05:40:56;;;;;;;;;;;;;;;41.11;19.25;100316.41;4421686;32;19989;-67
2022/05/16 05:43:21;;;;;;;;;;;;;;;41.06;18.92;100320.56;4418888;32;19954;-67
2022/05/16 05:45:47;;;;;;;;;;;;;;;40.68;19.12;100312.78;4420439;32;19986;-67
2022/05/16 05:48:12;;;;;;;;;;;;;;;40.73;18.89;100320.41;4420055;32;20027;-67
2022/05/16 05:50:38;;;;;;;;;;;;;;;41.02;19.23;100321.16;4418913;32;20390;-67
2022/05/16 05:53:04;;;;;;;;;;;;;;;41.02;19.39;100314.47;4420029;32;20387;-67
2022/05/16 05:55:29;;;;;;;;;;;;;;;40.96;19.28;100314.94;4421660;32;20599;-67
2022/05/16 05:57:55;;;;;;;;;;;;;;;41.01;19.13;100310.00;4411037;32;19980;-67
2022/05/16 06:00:21;;;;;;;;;;;;;;;41.09;19.19;100319.25;4420962;32;20494;-67
2022/05/16 06:02:47;;;;;;;;;;;;;;;40.89;19.48;100327.12;4417479;32;19961;-67
2022/05/16 06:05:14;;;;;;;;;;;;;;;40.85;19.41;100329.84;4409769;32;19984;-67
2022/05/16 06:07:40;;;;;;;;;;;;;;;41.19;19.26;100334.50;4418922;32;19989;-67
2022/05/16 06:10:06;;;;;;;;;;;;;;;41.10;19.31;100333.34;4422592;32;20018;-67
2022/05/16 06:12:32;;;;;;;;;;;;;;;41.26;19.12;100330.44;4425021;32;20311;-67
2022/05/16 06:14:58;;;;;;;;;;;;;;;41.04;19.49;100323.44;4420810;32;20302;-67
2022/05/16 06:17:23;;;;;;;;;;;;;;;40.94;19.37;100325.88;4421914;32;20583;-67
2022/05/16 06:19:49;;;;;;;;;;;;;;;40.70;18.93;100330.59;4421032;32;19965;-67
2022/05/16 06:22:14;;;;;;;;;;;;;;;40.61;19.59;100317.59;4419531;32;21034;-67
2022/05/16 06:27:28;;;;;;;;;;;;;;;41.51;18.92;100318.34;4421871;32;19949;-67
2022/05/16 06:29:56;;;;;;;;;;;;;;;41.47;18.82;100323.28;4418802;32;20446;-67
2022/05/16 06:32:21;;;;;;;;;;;;;;;41.26;18.80;100321.56;4418896;32;19997;-67
2022/05/16 06:34:48;;;;;;;;;;;;;;;41.37;18.78;100320.59;4411328;32;20345;-68
2022/05/16 06:37:14;;;;;;;;;;;;;;;41.84;18.69;100335.34;4413056;32;19975;-68
2022/05/16 06:39:39;;;;;;;;;;;;;;;41.87;18.50;100331.81;4417150;32;20104;-68
2022/05/16 06:42:05;;;;;;;;;;;;;;;41.84;18.41;100332.41;4413680;32;20408;-68
2022/05/16 06:44:31;;;;;;;;;;;;;;;41.84;18.26;100330.19;4411825;32;20347;-69
2022/05/16 06:46:56;;;;;;;;;;;;;;;41.73;18.39;100330.41;4409108;32;20024;-69
2022/05/16 06:49:22;;;;;;;;;;;;;;;41.62;18.37;100326.22;4404648;32;20015;-69
2022/05/16 06:51:48;;;;;;;;;;;;;;;41.80;18.60;100324.09;4410012;32;20018;-69
2022/05/16 06:54:13;;;;;;;;;;;;;;;41.02;18.66;100320.38;4413535;32;19996;-69
2022/05/16 06:56:39;;;;;;;;;;;;;;;41.19;18.89;100322.69;4410337;32;20007;-69
2022/05/16 06:59:04;;;;;;;;;;;;;;;41.34;18.82;100324.87;4411027;32;19961;-68
2022/05/16 07:01:30;;;;;;;;;;;;;;;41.31;18.90;100332.91;4408125;32;20028;-69
2022/05/16 07:03:55;;;;;;;;;;;;;;;41.62;18.80;100335.09;4410396;32;21153;-69
2022/05/16 07:06:20;;;;;;;;;;;;;;;41.21;18.98;100323.56;4410122;32;19968;-69
2022/05/16 07:08:46;;;;;;;;;;;;;;;41.55;18.77;100335.47;4409742;32;19974;-69
2022/05/16 07:11:12;;;;;;;;;;;;;;;41.88;18.96;100335.53;4411451;32;20005;-69
2022/05/16 07:13:38;;;;;;;;;;;;;;;41.78;18.62;100341.00;4397676;32;20004;-69
2022/05/16 07:16:04;;;;;;;;;;;;;;;42.00;18.46;100351.66;4403903;32;20005;-69
2022/05/16 07:18:29;;;;;;;;;;;;;;;42.08;18.11;100354.97;4412553;32;20692;-69
2022/05/16 07:20:55;;;;;;;;;;;;;;;42.09;18.01;100355.72;4411855;32;20039;-69
2022/05/16 07:23:21;;;;;;;;;;;;;;;42.13;18.14;100361.81;4412123;32;20034;-69
2022/05/16 07:28:32;;;;;;;;;;;;;;;41.99;18.17;100364.16;4416628;32;20000;-69
2022/05/16 07:30:58;;;;;;;;;;;;;;;41.75;18.79;100363.78;4411251;32;19992;-69
2022/05/16 07:33:24;;;;;;;;;;;;;;;41.08;18.74;100371.63;4408593;32;19977;-69
2022/05/16 07:35:50;;;;;;;;;;;;;;;41.46;19.10;100369.75;4409897;32;20008;-69
2022/05/16 07:38:16;;;;;;;;;;;;;;;41.41;19.06;100371.03;4412469;32;20008;-69
2022/05/16 07:40:42;;;;;;;;;;;;;;;41.38;19.13;100369.41;4412361;32;20030;-70
2022/05/16 07:43:08;;;;;;;;;;;;;;;41.78;18.95;100373.50;4411154;32;20090;-70
2022/05/16 07:45:33;;;;;;;;;;;;;;;41.39;19.07;100377.59;4413147;32;19995;-69
2022/05/16 07:48:03;;;;;;;;;;;;;;;41.67;18.46;100377.41;4406931;32;20064;-70
2022/05/16 07:50:29;;;;;;;;;;;;;;;40.93;18.89;100368.63;4410769;32;20316;-70
2022/05/16 07:52:54;;;;;;;;;;;;;;;40.78;19.31;100378.22;4411057;32;20375;-69
2022/05/16 07:55:23;;;;;;;;;;;;;;;40.11;19.89;100370.22;4410222;32;19979;-69
2022/05/16 07:57:48;;;;;;;;;;;;;;;40.55;19.58;100370.38;4406673;32;20052;-69
2022/05/16 08:00:14;;;;;;;;;;;;;;;41.03;19.33;100366.94;4412027;32;20405;-70
2022/05/16 08:02:40;;;;;;;;;;;;;;;41.39;19.48;100373.88;4411889;32;19994;-69
2022/05/16 08:05:07;;;;;;;;;;;;;;;40.82;19.75;100375.44;4411440;32;20077;-69
2022/05/16 08:07:32;;;;;;;;;;;;;;;40.79;19.56;100373.81;4412626;32;20072;-69
2022/05/16 08:12:43;;;;;;;;;;;;;;;41.15;19.79;100370.53;4417614;32;19961;-69
2022/05/16 08:15:08;;;;;;;;;;;;;;;39.65;20.20;100371.41;4413219;32;20606;-69
2022/05/16 08:17:34;;;;;;;;;;;;;;;39.80;20.60;100376.66;4415372;32;20017;-69
2022/05/16 08:20:00;;;;;;;;;;;;;;;39.91;20.39;100375.06;4414571;32;20025;-69
2022/05/16 08:22:28;;;;;;;;;;;;;;;40.45;20.05;100377.94;4415318;32;21570;-69
2022/05/16 08:24:54;;;;;;;;;;;;;;;40.55;19.91;100379.22;4416383;32;20248;-69
2022/05/16 08:27:19;;;;;;;;;;;;;;;40.55;19.78;100373.34;4414457;32;20437;-69
2022/05/16 08:29:45;;;;;;;;;;;;;;;40.74;19.48;100375.81;4418332;32;19975;-70
2022/05/16 08:32:15;;;;;;;;;;;;;;;40.98;19.62;100373.31;4414101;32;20039;-71
2022/05/16 08:34:41;;;;;;;;;;;;;;;41.10;19.59;100380.59;4411907;32;20000;-69
2022/05/16 08:39:53;;;;;;;;;;;;;;;41.36;19.68;100381.88;4412533;32;19977;-68
2022/05/16 08:42:21;;;;;;;;;;;;;;;40.97;19.61;100378.44;4405806;32;20007;-69
2022/05/16 08:50:04;;;;;;;;;;;;;;;41.99;19.56;100382.63;3934755;32;15723591;-70
2022/05/16 08:55:07;;;;;;;;;;;;;;;42.75;19.06;100386.06;3946472;32;15781551;-68
2022/05/16 08:57:36;;;;;;;;;;;;;;;42.75;19.06;100386.06;4425362;32;20397;-71
2022/05/16 09:00:05;;;;;;;;;;;;;;;42.36;18.87;100385.81;4431897;32;20033;-71
2022/05/16 09:02:32;;;;;;;;;;;;;;;42.09;18.46;100389.03;4424646;32;19957;-71
2022/05/16 09:05:05;;;;;;;;;;;;;;;42.75;18.87;100389.00;4427314;32;19965;-69
2022/05/16 09:07:36;;;;;;;;;;;;;;;43.17;18.42;100395.19;4427692;32;19996;-70
2022/05/16 09:10:06;;;;;;;;;;;;;;;43.98;18.07;100385.09;4430491;32;19953;-71
2022/05/16 09:12:43;;;;;;;;;;;;;;;44.22;17.34;100386.72;4428590;32;20440;-70
2022/05/16 09:15:16;;;;;;;;;;;;;;;43.97;16.78;100402.13;4428684;32;20385;-70
2022/05/16 09:17:49;;;;;;;;;;;;;;;43.85;16.75;100403.84;4427032;32;20341;-71
2022/05/16 09:22:59;;;;;;;;;;;;;;;44.36;16.65;100414.00;3948327;32;15723580;-70
2022/05/16 09:25:30;;;;;;;;;;;;;;;44.36;16.65;100414.00;4421728;32;20928;-70
2022/05/16 09:30:45;;;;;;;;;;;;;;;43.93;16.85;100413.06;4421449;32;19996;-70
2022/05/16 09:33:13;;;;;;;;;;;;;;;43.64;17.60;100419.34;4418158;32;20031;-71
2022/05/16 09:35:41;;;;;;;;;;;;;;;43.79;16.91;100422.16;4417141;32;20000;-69
2022/05/16 09:38:07;;;;;;;;;;;;;;;43.95;16.52;100425.03;4418348;32;19957;-70
2022/05/16 09:40:34;;;;;;;;;;;;;;;43.85;16.63;100421.62;4425669;32;20069;-71
2022/05/16 09:43:14;;;;;;;;;;;;;;;43.81;16.81;100431.16;4420350;32;19984;-71
2022/05/16 09:45:42;;;;;;;;;;;;;;;43.40;16.86;100430.22;4424772;32;21059;-70
2022/05/16 09:48:14;;;;;;;;;;;;;;;43.18;17.58;100429.31;4418812;32;20027;-71
2022/05/16 09:50:41;;;;;;;;;;;;;;;43.01;17.33;100430.81;4424106;32;19980;-70
2022/05/16 09:58:20;;;;;;;;;;;;;;;43.23;17.71;100442.84;3946807;32;15722581;-70
2022/05/16 10:00:52;;;;;;;;;;;;;;;43.23;17.71;100442.84;4429401;32;19996;-70
2022/05/16 10:03:38;;;;;;;;;;;;;;;42.57;18.08;100440.72;4429716;32;20008;-71
2022/05/16 10:06:09;;;;;;;;;;;;;;;42.62;17.68;100446.16;4427617;32;19954;-71
2022/05/16 10:11:20;;;;;;;;;;;;;;;42.94;17.44;100461.59;3946053;32;15724523;-71
2022/05/16 10:13:46;;;;;;;;;;;;;;;42.94;17.44;100461.59;4417845;32;20012;-72
2022/05/16 10:16:14;;;;;;;;;;;;;;;42.64;17.98;100455.09;4417661;32;20064;-71
2022/05/16 10:18:42;;;;;;;;;;;;;;;42.48;18.28;100448.47;4418074;32;20032;-71
2022/05/16 10:21:10;;;;;;;;;;;;;;;42.53;17.96;100450.19;4416816;32;20492;-71
2022/05/16 10:23:38;;;;;;;;;;;;;;;42.61;18.00;100452.75;4402990;32;20347;-71
2022/05/16 10:26:07;;;;;;;;;;;;;;;42.93;18.07;100457.13;4413874;32;20004;-71
2022/05/16 10:28:37;;;;;;;;;;;;;;;43.44;17.52;100463.72;4418763;32;19992;-71
2022/05/16 10:33:51;;;;;;;;;;;;;;;43.46;17.40;100466.75;4416307;32;19993;-71
2022/05/16 10:36:24;;;;;;;;;;;;;;;43.88;17.30;100461.81;4414803;32;20005;-71
2022/05/16 10:39:02;;;;;;;;;;;;;;;43.71;17.14;100471.50;4413327;32;20320;-70
2022/05/16 10:41:32;;;;;;;;;;;;;;;44.04;16.62;100474.28;4417355;32;20386;-70
2022/05/16 10:44:17;;;;;;;;;;;;;;;44.04;16.89;100477.25;4414708;32;20096;-70
2022/05/16 10:46:47;;;;;;;;;;;;;;;44.41;16.56;100466.09;4416532;32;20100;-69
2022/05/16 10:49:16;;;;;;;;;;;;;;;45.17;16.24;100468.06;4420159;32;19971;-70
2022/05/16 10:54:23;;;;;;;;;;;;;;;45.30;15.67;100469.22;3959715;31;15717985;-71
2022/05/16 10:59:32;;;;;;;;;;;;;;;46.06;15.54;100466.47;3943860;32;15782620;-70
2022/05/16 11:07:44;;;;;;;;;;;;;;;44.94;16.16;100465.78;3944383;32;15723490;-70
2022/05/16 11:15:29;;;;;;;;;;;;;;;44.26;17.13;100472.94;3945745;32;15735409;-71
2022/05/16 11:23:17;;;;;;;;;;;;;;;43.39;18.21;100482.78;3944795;32;15723941;-70
2022/05/16 11:25:54;;;;;;;;;;;;;;;43.39;18.21;100482.78;4420418;32;19967;-71
2022/05/16 11:28:26;;;;;;;;;;;;;;;42.87;18.31;100483.50;4419530;32;19997;-70
2022/05/16 11:33:48;;;;;;;;;;;;;;;43.18;18.45;100494.47;3940073;32;15723597;-69
2022/05/16 11:36:32;;;;;;;;;;;;;;;43.18;18.45;100494.47;4413841;32;19997;-70
2022/05/16 11:39:05;;;;;;;;;;;;;;;43.24;18.31;100495.47;4417119;32;20332;-70
2022/05/16 11:44:35;;;;;;;;;;;;;;;43.21;18.49;100499.06;3942391;32;15724639;-71
2022/05/16 11:54:59;;;;;;;;;;;;;;;45.44;16.37;100496.47;3944870;32;15722591;-69
2022/05/16 12:00:45;;;;;;;;;;;;;;;44.91;16.36;100493.12;4413506;32;20026;-69
2022/05/16 12:13:59;;;;;;;;;;;;;;;48.59;13.79;100484.03;3942268;32;15724323;-68
2022/05/16 12:16:28;;;;;;;;;;;;;;;49.39;13.46;100488.53;4413498;32;20402;-70
2022/05/16 12:19:13;;;;;;;;;;;;;;;48.94;13.69;100498.16;4420847;32;20005;-70
2022/05/16 12:21:39;;;;;;;;;;;;;;;48.42;13.84;100497.13;4404452;32;20517;-70
2022/05/16 12:24:07;;;;;;;;;;;;;;;49.12;13.50;100502.25;4420692;32;19996;-69
2022/05/16 12:26:52;;;;;;;;;;;;;;;48.38;14.01;100512.75;4419099;32;20024;-70
2022/05/16 12:29:20;;;;;;;;;;;;;;;48.31;14.17;100511.13;4423324;32;20490;-69
2022/05/16 12:34:42;;;;;;;;;;;;;;;46.53;15.77;100502.13;3950425;32;15727471;-70
2022/05/16 12:37:10;;;;;;;;;;;;;;;46.53;15.77;100502.13;4434832;32;19989;-69
2022/05/16 12:42:32;;;;;;;;;;;;;;;45.89;15.97;100497.19;3944871;32;15724604;-69
2022/05/16 12:45:00;;;;;;;;;;;;;;;45.89;15.97;100497.19;4422421;32;19953;-69
2022/05/16 12:47:46;;;;;;;;;;;;;;;45.61;16.10;100507.44;4422561;32;20049;-69
2022/05/16 12:50:32;;;;;;;;;;;;;;;45.69;16.08;100504.69;4418811;32;20354;-69
2022/05/16 12:53:17;;;;;;;;;;;;;;;44.83;16.62;100508.44;4416694;32;20347;-69
2022/05/16 12:56:03;;;;;;;;;;;;;;;46.59;15.67;100507.47;4421212;32;20028;-69
2022/05/16 12:58:38;;;;;;;;;;;;;;;46.63;15.59;100503.88;4418808;32;19993;-70
2022/05/16 13:01:10;;;;;;;;;;;;;;;47.60;14.73;100505.72;4422153;32;20001;-69
2022/05/16 13:06:26;;;;;;;;;;;;;;;48.00;14.12;100505.94;3952015;32;15721615;-71
2022/05/16 13:08:57;;;;;;;;;;;;;;;48.00;14.12;100505.94;4433612;32;20313;-69
2022/05/16 13:11:29;;;;;;;;;;;;;;;48.25;13.95;100508.00;4434964;32;19956;-69
2022/05/16 13:16:32;;;;;;;;;;;;;;;48.76;13.93;100522.47;3945881;32;15721586;-70
2022/05/16 13:21:40;;;;;;;;;;;;;;;48.31;14.33;100523.06;3945040;32;15724562;-70
2022/05/16 13:24:07;;;;;;;;;;;;;;;48.31;14.33;100523.06;4420269;32;19957;-70
2022/05/16 13:29:21;;;;;;;;;;;;;;;48.70;13.82;100503.69;4422122;32;20593;-70
2022/05/16 13:31:49;;;;;;;;;;;;;;;50.74;12.52;100506.13;4421711;32;20336;-69
2022/05/16 13:34:27;;;;;;;;;;;;;;;51.07;12.29;100513.97;4421367;32;20404;-71
2022/05/16 13:36:53;;;;;;;;;;;;;;;51.78;11.76;100515.31;4419565;32;19962;-71
2022/05/16 13:39:19;;;;;;;;;;;;;;;52.42;11.17;100516.44;4418327;32;19996;-71
2022/05/16 13:41:53;;;;;;;;;;;;;;;52.87;10.85;100512.03;4421335;32;19970;-71
2022/05/16 13:44:19;;;;;;;;;;;;;;;52.57;10.90;100505.94;4420681;32;20028;-70
2022/05/16 13:46:44;;;;;;;;;;;;;;;51.87;11.41;100505.59;4421216;32;19949;-72
2022/05/16 13:49:11;;;;;;;;;;;;;;;52.59;10.88;100508.94;4421008;32;20488;-72
2022/05/16 13:51:45;;;;;;;;;;;;;;;52.60;10.73;100501.44;4423329;32;20036;-73
2022/05/16 13:54:19;;;;;;;;;;;;;;;52.44;10.97;100492.38;4424835;32;20032;-72
2022/05/16 13:56:48;;;;;;;;;;;;;;;51.81;10.94;100487.56;4394699;32;20487;-72
2022/05/16 13:59:13;;;;;;;;;;;;;;;53.35;10.61;100490.28;4416051;32;19965;-70
2022/05/16 14:01:48;;;;;;;;;;;;;;;54.13;9.82;100499.16;4417949;32;20017;-71
2022/05/16 14:04:15;;;;;;;;;;;;;;;53.96;9.62;100506.00;4413971;32;20147;-71
2022/05/16 14:11:52;;;;;;;;;;;;;;;56.31;8.36;100492.84;3956472;31;15720614;-71
2022/05/16 14:14:20;;;;;;;;;;;;;;;56.31;8.36;100492.84;4438014;32;20052;-71
2022/05/16 14:16:50;;;;;;;;;;;;;;;55.90;8.43;100498.63;4438349;32;20004;-72
2022/05/16 14:19:28;;;;;;;;;;;;;;;55.99;8.32;100493.97;4436539;32;20302;-72
2022/05/16 14:22:07;;;;;;;;;;;;;;;56.94;7.91;100496.47;4437886;32;20004;-72
2022/05/16 14:24:35;;;;;;;;;;;;;;;57.50;7.33;100494.75;4436353;32;20398;-70
2022/05/16 14:27:01;;;;;;;;;;;;;;;56.37;7.84;100490.50;4435290;32;19949;-71
2022/05/16 14:32:08;;;;;;;;;;;;;;;57.66;7.22;100492.19;3939783;32;15723071;-70
2022/05/16 14:39:51;;;;;;;;;;;;;;;58.73;6.40;100493.69;3940350;32;15723358;-70
2022/05/16 14:47:42;;;;;;;;;;;;;;;58.40;6.97;100471.75;3942816;32;15724235;-70
2022/05/16 14:52:50;;;;;;;;;;;;;;;59.37;6.14;100470.13;3942819;32;15728665;-71
2022/05/16 14:55:16;;;;;;;;;;;;;;;59.37;6.14;100470.13;4422570;32;20411;-71
2022/05/16 14:57:43;;;;;;;;;;;;;;;57.46;7.10;100456.22;4425090;32;20514;-70